Time;durP1;ratioP1;P1;durP2;ratioP2;P2;SDS_P1;SDS_P2;PMS_P1;PMS_P2;Temp;Humidity;BMP_temperature;BMP_pressure;BME280_temperature;BME280_humidity;BME280_pressure;Samples;Min_cycle;Max_cycle;Signal;HPM_P1;HPM_P2
2022/01/18 00:01:26;;;;;;;27.63;17.10;;;7.00;85.90;;;;;;4999137;28;20752;-76
2022/01/18 00:03:55;;;;;;;27.15;17.67;;;7.00;85.90;;;;;;4996931;28;20203;-76
2022/01/18 00:06:24;;;;;;;33.53;17.67;;;7.00;86.00;;;;;;4996665;28;20278;-77
2022/01/18 00:08:53;;;;;;;27.38;17.20;;;7.00;86.00;;;;;;4996649;28;20662;-76
2022/01/18 00:11:23;;;;;;;25.52;16.95;;;7.00;85.80;;;;;;4996750;28;20581;-76
2022/01/18 00:13:58;;;;;;;27.80;17.05;;;7.00;86.00;;;;;;4998144;28;20207;-76
2022/01/18 00:16:30;;;;;;;30.40;16.90;;;7.00;86.00;;;;;;5002570;28;20198;-76
2022/01/18 00:19:07;;;;;;;26.23;16.60;;;7.00;86.00;;;;;;4999904;28;20224;-76
2022/01/18 00:21:52;;;;;;;24.13;15.82;;;7.00;86.10;;;;;;4994101;28;20711;-76
2022/01/18 00:24:20;;;;;;;27.10;15.25;;;7.00;86.10;;;;;;4995307;28;20718;-76
2022/01/18 00:26:48;;;;;;;25.33;15.70;;;7.00;86.10;;;;;;4999654;28;20269;-76
2022/01/18 00:29:18;;;;;;;23.33;16.20;;;7.00;86.10;;;;;;4998813;28;20743;-76
2022/01/18 00:34:31;;;;;;;29.85;17.02;;;7.00;86.00;;;;;;4998739;28;20261;-76
2022/01/18 00:37:22;;;;;;;31.90;18.65;;;7.00;86.00;;;;;;4999434;28;20195;-76
2022/01/18 00:39:50;;;;;;;35.13;17.92;;;7.00;86.00;;;;;;4997507;28;21006;-76
2022/01/18 00:42:18;;;;;;;32.25;18.05;;;7.00;86.10;;;;;;4996922;28;20211;-77
2022/01/18 00:44:46;;;;;;;31.10;18.10;;;7.00;86.00;;;;;;4995188;28;20284;-76
2022/01/18 00:47:14;;;;;;;31.67;18.45;;;6.90;86.00;;;;;;4997963;28;20214;-76
2022/01/18 00:49:45;;;;;;;36.55;18.08;;;6.90;86.00;;;;;;4999862;28;20217;-77
2022/01/18 00:52:18;;;;;;;33.22;19.90;;;6.90;86.10;;;;;;4998111;28;20197;-77
2022/01/18 00:54:46;;;;;;;33.28;19.15;;;6.90;86.10;;;;;;5001878;28;20218;-77
2022/01/18 00:57:14;;;;;;;31.75;17.35;;;6.90;86.20;;;;;;4999833;28;20215;-77
2022/01/18 00:59:44;;;;;;;33.42;18.00;;;6.90;86.20;;;;;;5000075;28;20212;-77
2022/01/18 01:02:17;;;;;;;31.55;17.77;;;6.90;86.30;;;;;;5001757;28;20728;-77
2022/01/18 01:04:48;;;;;;;28.95;16.48;;;6.90;86.30;;;;;;4994763;28;20549;-77
2022/01/18 01:07:20;;;;;;;32.67;16.75;;;6.90;86.30;;;;;;5001526;28;20214;-78
2022/01/18 01:09:49;;;;;;;27.75;16.77;;;7.00;86.20;;;;;;4994643;28;20259;-77
2022/01/18 01:12:19;;;;;;;26.40;16.48;;;7.00;86.20;;;;;;4997726;28;20307;-77
2022/01/18 01:14:50;;;;;;;23.00;15.85;;;7.00;86.20;;;;;;4998842;28;20209;-77
2022/01/18 01:17:34;;;;;;;28.83;15.70;;;7.00;86.20;;;;;;5003058;28;20211;-76
2022/01/18 01:34:35;;;;;;;21.90;14.27;;;7.00;86.10;;;;;;4996006;28;20670;-78
2022/01/18 01:41:45;;;;;;;27.27;15.15;;;6.90;86.10;;;;;;5001561;28;20291;-77
2022/01/18 01:43:11;;;;;;;31.65;14.38;;;6.90;86.00;;;;;;4997144;28;20207;-77
2022/01/18 01:45:40;;;;;;;24.90;15.13;;;6.90;86.00;;;;;;5002120;28;20716;-77
2022/01/18 01:48:08;;;;;;;25.80;15.85;;;6.90;86.10;;;;;;5000704;28;20234;-76
2022/01/18 01:50:44;;;;;;;29.60;15.65;;;6.90;86.00;;;;;;5002504;28;20215;-78
2022/01/18 01:53:14;;;;;;;27.05;14.98;;;6.80;86.00;;;;;;4997338;28;20195;-78
2022/01/18 01:55:43;;;;;;;27.33;14.90;;;6.80;86.10;;;;;;5002569;28;20203;-78
2022/01/18 01:58:11;;;;;;;23.45;14.15;;;6.80;86.10;;;;;;4996702;28;20219;-78
2022/01/18 02:00:45;;;;;;;31.38;14.93;;;6.80;86.10;;;;;;4995714;28;20260;-78
2022/01/18 02:03:13;;;;;;;25.27;14.50;;;6.80;86.10;;;;;;4996818;28;20208;-78
2022/01/18 02:05:42;;;;;;;27.85;15.55;;;6.80;86.10;;;;;;4994699;28;20660;-78
2022/01/18 02:08:12;;;;;;;22.27;13.63;;;6.80;86.10;;;;;;4995111;28;20227;-78
2022/01/18 02:10:41;;;;;;;24.85;14.63;;;6.80;86.10;;;;;;4997496;28;20211;-77
2022/01/18 02:13:12;;;;;;;25.58;13.80;;;6.80;86.10;;;;;;4995391;28;20266;-78
2022/01/18 02:15:46;;;;;;;26.20;14.32;;;6.80;86.10;;;;;;4995175;28;20207;-78
2022/01/18 02:24:02;;;;;;;22.02;13.82;;;6.80;86.10;;;;;;4942914;29;20209;-78
2022/01/18 02:26:30;;;;;;;30.30;16.30;;;6.80;86.00;;;;;;4928737;29;20256;-78
2022/01/18 02:28:59;;;;;;;30.60;16.77;;;6.80;86.00;;;;;;4964783;28;20247;-78
2022/01/18 02:31:27;;;;;;;61.30;30.60;;;6.80;85.80;;;;;;4999523;28;20214;-78
2022/01/18 02:33:55;;;;;;;51.38;26.00;;;6.70;85.90;;;;;;4994137;28;20196;-78
2022/01/18 02:36:24;;;;;;;59.60;29.70;;;6.70;86.00;;;;;;4995702;28;20214;-78
2022/01/18 02:38:52;;;;;;;49.17;27.60;;;6.70;86.00;;;;;;4995741;28;20313;-78
2022/01/18 02:41:24;;;;;;;44.72;23.20;;;6.70;86.00;;;;;;4992331;28;20661;-78
2022/01/18 02:43:55;;;;;;;28.52;16.55;;;6.70;86.00;;;;;;5009129;28;20211;-78
2022/01/18 02:46:24;;;;;;;31.80;17.42;;;6.70;86.00;;;;;;4992609;28;20222;-78
2022/01/18 02:48:52;;;;;;;26.65;15.65;;;6.70;86.00;;;;;;4994060;28;20273;-78
2022/01/18 02:51:20;;;;;;;29.00;15.05;;;6.70;86.00;;;;;;4993624;28;20212;-78
2022/01/18 02:54:01;;;;;;;30.25;14.18;;;6.70;86.00;;;;;;4997963;28;20472;-77
2022/01/18 02:56:33;;;;;;;22.27;12.50;;;6.70;86.00;;;;;;4996135;28;20684;-77
2022/01/18 02:59:16;;;;;;;23.92;14.40;;;6.70;86.00;;;;;;4995026;28;20285;-78
2022/01/18 03:04:32;;;;;;;23.05;13.77;;;6.70;85.90;;;;;;4994737;28;20206;-78
2022/01/18 03:07:00;;;;;;;27.65;14.40;;;6.70;85.90;;;;;;4994209;28;20627;-78
2022/01/18 03:09:29;;;;;;;21.90;14.20;;;6.60;85.90;;;;;;5000304;28;20880;-78
2022/01/18 03:11:57;;;;;;;24.48;13.52;;;6.60;85.90;;;;;;4997012;28;20214;-78
2022/01/18 03:14:25;;;;;;;22.80;12.70;;;6.60;85.90;;;;;;5002139;28;20210;-77
2022/01/18 03:16:53;;;;;;;20.00;12.10;;;6.60;85.90;;;;;;5005300;28;20187;-77
2022/01/18 03:19:21;;;;;;;25.10;13.07;;;6.60;85.90;;;;;;5012102;28;20234;-77
2022/01/18 03:21:50;;;;;;;23.73;14.05;;;6.60;85.80;;;;;;4997085;28;20264;-77
2022/01/18 03:24:43;;;;;;;18.80;12.50;;;6.60;85.80;;;;;;4995070;28;20293;-77
2022/01/18 03:29:56;;;;;;;24.45;14.13;;;6.60;85.90;;;;;;4998787;28;20564;-77
2022/01/18 03:32:24;;;;;;;24.42;14.32;;;6.60;85.80;;;;;;5002262;28;20215;-78
2022/01/18 03:34:52;;;;;;;22.00;13.23;;;6.50;85.90;;;;;;5002329;28;20195;-77
2022/01/18 03:37:20;;;;;;;28.00;15.73;;;6.50;85.90;;;;;;4996193;28;20267;-77
2022/01/18 03:39:48;;;;;;;24.77;14.23;;;6.60;86.00;;;;;;5001720;28;20209;-78
2022/01/18 03:42:38;;;;;;;22.02;13.85;;;6.60;86.00;;;;;;4999355;28;20204;-77
2022/01/18 03:45:08;;;;;;;23.80;12.52;;;6.60;86.00;;;;;;4996503;28;20202;-76
2022/01/18 03:47:36;;;;;;;19.02;11.00;;;6.60;86.00;;;;;;5001063;28;20220;-76
2022/01/18 03:50:06;;;;;;;19.38;12.43;;;6.60;86.10;;;;;;4999778;28;20727;-77
2022/01/18 03:52:37;;;;;;;20.25;13.10;;;6.60;86.10;;;;;;5000312;28;20210;-77
2022/01/18 03:55:07;;;;;;;21.65;12.02;;;6.60;86.00;;;;;;5000806;28;20213;-77
2022/01/18 03:57:36;;;;;;;20.52;12.02;;;6.60;86.00;;;;;;5003029;28;20289;-77
2022/01/18 04:00:07;;;;;;;22.92;12.80;;;6.60;86.00;;;;;;4995408;28;20618;-78
2022/01/18 04:02:39;;;;;;;23.13;13.07;;;6.60;86.00;;;;;;4998985;28;20210;-78
2022/01/18 04:05:08;;;;;;;25.10;13.48;;;6.60;85.90;;;;;;4999377;28;20210;-77
2022/01/18 04:07:36;;;;;;;20.83;12.75;;;6.60;85.90;;;;;;4997191;28;20234;-77
2022/01/18 04:10:05;;;;;;;22.50;12.15;;;6.60;85.90;;;;;;4996503;28;20680;-77
2022/01/18 04:12:34;;;;;;;19.13;11.98;;;6.60;85.90;;;;;;5002137;28;20207;-77
2022/01/18 04:15:04;;;;;;;20.60;11.43;;;6.60;85.90;;;;;;4998980;28;20283;-77
2022/01/18 04:17:48;;;;;;;17.73;10.48;;;6.60;85.90;;;;;;4997292;28;20286;-77
2022/01/18 04:25:55;;;;;;;17.70;10.60;;;6.60;85.90;;;;;;4998705;28;20338;-77
2022/01/18 04:28:32;;;;;;;15.27;8.88;;;6.60;85.90;;;;;;4999483;28;20281;-77
2022/01/18 04:31:04;;;;;;;21.05;10.23;;;6.60;85.90;;;;;;5002670;28;20209;-77
2022/01/18 04:33:32;;;;;;;18.25;11.73;;;6.60;85.90;;;;;;4999437;28;20212;-77
2022/01/18 04:36:01;;;;;;;19.42;11.18;;;6.60;85.80;;;;;;5004604;28;20254;-76
2022/01/18 04:38:28;;;;;;;20.70;12.20;;;6.60;85.80;;;;;;4999716;28;20762;-77
2022/01/18 04:41:00;;;;;;;24.85;11.35;;;6.60;85.80;;;;;;5000439;28;20266;-77
2022/01/18 04:43:43;;;;;;;19.60;10.18;;;6.60;85.80;;;;;;4999967;28;20204;-77
2022/01/18 04:48:59;;;;;;;16.52;10.48;;;6.60;85.80;;;;;;4998714;28;20241;-78
2022/01/18 04:51:27;;;;;;;19.77;11.10;;;6.60;85.80;;;;;;5005723;28;20260;-76
2022/01/18 04:53:58;;;;;;;17.67;10.38;;;6.60;85.80;;;;;;4997932;28;20552;-77
2022/01/18 04:57:51;;;;;;;22.77;11.40;;;6.60;85.80;;;;;;5002233;28;20742;-77
2022/01/18 04:59:18;;;;;;;21.40;11.68;;;6.60;85.80;;;;;;5000411;28;20624;-77
2022/01/18 05:01:51;;;;;;;17.60;10.07;;;6.60;85.80;;;;;;5000134;28;20257;-77
2022/01/18 05:04:19;;;;;;;20.58;10.60;;;6.60;85.80;;;;;;4997721;28;20223;-77
2022/01/18 05:06:47;;;;;;;20.73;10.18;;;6.60;85.80;;;;;;4997374;28;20215;-77
2022/01/18 05:09:15;;;;;;;15.50;8.98;;;6.60;85.80;;;;;;5001972;28;20234;-77
2022/01/18 05:11:51;;;;;;;21.13;10.30;;;6.60;85.80;;;;;;4998954;28;20210;-77
2022/01/18 05:14:28;;;;;;;16.85;10.25;;;6.60;85.80;;;;;;5003571;28;20575;-76
2022/01/18 05:17:06;;;;;;;17.23;10.40;;;6.60;85.80;;;;;;4997206;28;20225;-77
2022/01/18 05:19:57;;;;;;;20.67;10.57;;;6.60;85.80;;;;;;5001247;28;20248;-76
2022/01/18 05:25:11;;;;;;;24.50;10.63;;;6.50;85.70;;;;;;5000220;28;20558;-76
2022/01/18 05:27:39;;;;;;;23.52;11.05;;;6.50;85.70;;;;;;5001882;28;20230;-76
2022/01/18 05:30:08;;;;;;;18.67;9.88;;;6.50;85.70;;;;;;4998282;28;20266;-76
2022/01/18 05:32:37;;;;;;;18.90;9.90;;;6.50;85.70;;;;;;4998268;28;20219;-77
2022/01/18 05:35:06;;;;;;;17.70;9.10;;;6.50;85.80;;;;;;4997499;28;20199;-76
2022/01/18 05:37:33;;;;;;;21.85;9.90;;;6.50;85.80;;;;;;4993728;28;20235;-77
2022/01/18 05:40:01;;;;;;;18.10;9.98;;;6.50;85.80;;;;;;4997882;28;20218;-77
2022/01/18 05:42:29;;;;;;;17.33;9.45;;;6.50;85.80;;;;;;4996225;28;20211;-77
2022/01/18 05:44:57;;;;;;;15.68;8.48;;;6.50;85.80;;;;;;5005620;28;20548;-77
2022/01/18 05:47:26;;;;;;;14.65;7.95;;;6.50;85.80;;;;;;5006779;28;20270;-77
2022/01/18 05:49:56;;;;;;;13.57;8.02;;;6.50;85.80;;;;;;4998187;28;20222;-77
2022/01/18 05:52:24;;;;;;;15.18;8.48;;;6.50;85.70;;;;;;4997024;28;20245;-77
2022/01/18 05:54:52;;;;;;;12.35;8.35;;;6.50;85.80;;;;;;5000993;28;20250;-76
2022/01/18 05:57:21;;;;;;;16.50;8.48;;;6.50;85.80;;;;;;5013547;28;20238;-76
2022/01/18 05:59:50;;;;;;;17.35;7.97;;;6.50;85.80;;;;;;5004060;28;20206;-77
2022/01/18 06:02:30;;;;;;;14.77;7.95;;;6.50;85.80;;;;;;4996235;28;20696;-77
2022/01/18 06:07:45;;;;;;;12.90;7.25;;;6.50;85.80;;;;;;4997033;28;20270;-77
2022/01/18 06:10:14;;;;;;;17.35;8.45;;;6.50;85.70;;;;;;4997798;28;20311;-77
2022/01/18 06:12:42;;;;;;;12.07;6.43;;;6.50;85.70;;;;;;4996268;28;20207;-77
2022/01/18 06:15:10;;;;;;;12.40;6.40;;;6.50;85.80;;;;;;4999822;28;20209;-76
2022/01/18 06:17:39;;;;;;;18.33;7.38;;;6.50;85.80;;;;;;4998813;28;20225;-76
2022/01/18 06:20:10;;;;;;;13.75;6.40;;;6.50;85.80;;;;;;4999913;28;20846;-76
2022/01/18 06:22:38;;;;;;;12.15;6.68;;;6.50;85.80;;;;;;4995090;28;20210;-76
2022/01/18 06:25:08;;;;;;;12.93;6.47;;;6.50;85.80;;;;;;4997539;28;20917;-77
2022/01/18 06:27:36;;;;;;;15.52;6.38;;;6.50;85.80;;;;;;4999932;28;20237;-76
2022/01/18 06:30:09;;;;;;;13.48;6.38;;;6.50;85.80;;;;;;4995416;28;20214;-76
2022/01/18 06:32:38;;;;;;;18.55;6.70;;;6.50;85.80;;;;;;5000633;28;20277;-77
2022/01/18 06:35:09;;;;;;;11.38;6.28;;;6.50;85.80;;;;;;4998404;28;20297;-77
2022/01/18 06:37:37;;;;;;;13.60;6.90;;;6.50;85.70;;;;;;5000911;28;20290;-76
2022/01/18 06:40:07;;;;;;;16.17;6.55;;;6.50;85.80;;;;;;4999611;28;20245;-77
2022/01/18 06:42:35;;;;;;;18.23;7.85;;;6.50;85.70;;;;;;5000084;28;20206;-76
2022/01/18 06:45:04;;;;;;;18.42;7.15;;;6.50;85.70;;;;;;5004863;28;20203;-76
2022/01/18 06:47:32;;;;;;;14.27;6.15;;;6.50;85.80;;;;;;5006094;28;20235;-76
2022/01/18 06:50:00;;;;;;;9.63;6.13;;;6.50;85.70;;;;;;5005192;28;20600;-76
2022/01/18 06:52:29;;;;;;;16.42;6.20;;;6.50;85.60;;;;;;5003983;28;20543;-77
2022/01/18 06:54:57;;;;;;;15.07;6.50;;;6.50;85.70;;;;;;5001421;28;20299;-77
2022/01/18 06:57:25;;;;;;;10.75;5.90;;;6.50;85.70;;;;;;5003799;28;20272;-76
2022/01/18 06:59:53;;;;;;;11.20;6.03;;;6.50;85.70;;;;;;5002524;28;20198;-76
2022/01/18 07:02:21;;;;;;;11.35;5.80;;;6.50;85.70;;;;;;5000522;28;20665;-74
2022/01/18 07:04:49;;;;;;;11.63;6.50;;;6.50;85.70;;;;;;5001663;28;20295;-75
2022/01/18 07:07:18;;;;;;;13.85;5.28;;;6.50;85.70;;;;;;5003010;28;20256;-75
2022/01/18 07:09:47;;;;;;;11.45;5.53;;;6.50;85.70;;;;;;5003051;28;20288;-75
2022/01/18 07:12:16;;;;;;;12.25;6.30;;;6.50;85.70;;;;;;4996247;28;20255;-75
2022/01/18 07:14:44;;;;;;;11.48;6.20;;;6.50;85.80;;;;;;5003212;28;20260;-75
2022/01/18 07:17:12;;;;;;;14.63;7.63;;;6.50;85.70;;;;;;5005984;28;20202;-76
2022/01/18 07:19:40;;;;;;;14.88;7.30;;;6.50;85.60;;;;;;5002450;28;20253;-76
2022/01/18 07:22:07;;;;;;;15.85;7.95;;;6.50;85.50;;;;;;5000631;28;20610;-76
2022/01/18 07:24:41;;;;;;;19.27;7.80;;;6.40;85.60;;;;;;5000160;28;20221;-77
2022/01/18 07:27:12;;;;;;;13.48;7.20;;;6.40;85.70;;;;;;4996299;28;20667;-77
2022/01/18 07:29:42;;;;;;;18.15;6.93;;;6.40;85.70;;;;;;4995439;28;20288;-76
2022/01/18 07:32:11;;;;;;;10.80;5.90;;;6.40;85.70;;;;;;5006711;28;20577;-76
2022/01/18 07:34:46;;;;;;;14.60;5.05;;;6.40;85.80;;;;;;4999743;28;20288;-76
2022/01/18 07:37:14;;;;;;;13.20;6.35;;;6.50;85.80;;;;;;4999181;28;20198;-76
2022/01/18 07:39:48;;;;;;;13.20;5.80;;;6.50;85.70;;;;;;4999299;28;20301;-76
2022/01/18 07:42:18;;;;;;;10.27;6.20;;;6.50;85.70;;;;;;5002675;28;20596;-76
2022/01/18 07:44:46;;;;;;;13.07;5.72;;;6.50;85.70;;;;;;5000264;28;20202;-76
2022/01/18 07:47:14;;;;;;;13.23;4.90;;;6.50;85.70;;;;;;5001991;28;20279;-76
2022/01/18 07:49:45;;;;;;;12.45;5.57;;;6.50;85.70;;;;;;4999023;28;20221;-76
2022/01/18 07:52:13;;;;;;;8.40;3.95;;;6.50;85.80;;;;;;5000502;28;20205;-78
2022/01/18 07:54:41;;;;;;;10.65;4.07;;;6.50;85.70;;;;;;4994961;28;20210;-77
2022/01/18 07:57:13;;;;;;;9.27;4.20;;;6.50;85.70;;;;;;5001041;28;20206;-78
2022/01/18 07:59:43;;;;;;;7.85;4.03;;;6.50;85.70;;;;;;5001732;28;20702;-78
2022/01/18 08:02:11;;;;;;;7.60;3.78;;;6.50;85.70;;;;;;4999676;28;20252;-78
2022/01/18 08:04:39;;;;;;;9.35;4.60;;;6.50;85.70;;;;;;5003044;28;20290;-78
2022/01/18 08:07:07;;;;;;;11.15;4.18;;;6.50;85.70;;;;;;4997008;28;20246;-78
2022/01/18 08:09:36;;;;;;;9.55;4.35;;;6.60;85.70;;;;;;4999037;28;20203;-78
2022/01/18 08:12:05;;;;;;;8.77;5.03;;;6.60;85.70;;;;;;4999739;28;20222;-78
2022/01/18 08:14:33;;;;;;;11.65;5.25;;;6.60;85.70;;;;;;4996275;28;20266;-78
2022/01/18 08:17:05;;;;;;;15.00;4.85;;;6.60;85.70;;;;;;5013767;28;20212;-78
2022/01/18 08:19:35;;;;;;;8.90;4.10;;;6.60;85.70;;;;;;4997844;28;20214;-78
2022/01/18 08:22:09;;;;;;;10.30;4.18;;;6.60;85.60;;;;;;4999998;28;20355;-78
2022/01/18 08:24:37;;;;;;;8.13;4.22;;;6.60;85.70;;;;;;4995518;28;20281;-78
2022/01/18 08:27:05;;;;;;;7.95;4.00;;;6.60;85.60;;;;;;5001279;28;20211;-78
2022/01/18 08:29:34;;;;;;;9.10;3.40;;;6.60;85.60;;;;;;4999922;28;20230;-78
2022/01/18 08:32:17;;;;;;;6.28;3.05;;;6.60;85.60;;;;;;4995546;28;20886;-76
2022/01/18 08:34:45;;;;;;;6.30;3.15;;;6.60;85.60;;;;;;5001008;28;20684;-76
2022/01/18 08:37:13;;;;;;;7.63;2.25;;;6.70;85.60;;;;;;4999283;28;20218;-76
2022/01/18 08:39:41;;;;;;;8.73;2.95;;;6.70;85.60;;;;;;4999204;28;20211;-76
2022/01/18 08:42:10;;;;;;;5.20;2.50;;;6.60;85.50;;;;;;4997951;28;20683;-76
2022/01/18 08:44:42;;;;;;;7.65;3.40;;;6.70;85.60;;;;;;4998056;28;20214;-76
2022/01/18 08:47:11;;;;;;;9.32;4.10;;;6.70;85.60;;;;;;5002945;28;20194;-76
2022/01/18 08:49:40;;;;;;;13.10;4.82;;;6.70;85.60;;;;;;4999769;28;20694;-76
2022/01/18 08:52:08;;;;;;;9.35;3.95;;;6.70;85.60;;;;;;4997143;28;20219;-76
2022/01/18 08:54:37;;;;;;;10.30;4.63;;;6.70;85.60;;;;;;4997841;28;20211;-76
2022/01/18 08:57:05;;;;;;;6.22;3.75;;;6.80;85.60;;;;;;4998328;28;20556;-76
2022/01/18 08:59:35;;;;;;;6.45;3.60;;;6.80;85.50;;;;;;4995712;28;20207;-76
2022/01/18 09:02:03;;;;;;;9.38;3.05;;;6.80;85.50;;;;;;4998245;28;20597;-76
2022/01/18 09:04:33;;;;;;;8.02;2.97;;;6.80;85.50;;;;;;4999503;28;20206;-76
2022/01/18 09:07:07;;;;;;;5.95;3.25;;;6.80;85.50;;;;;;4997042;28;20209;-76
2022/01/18 09:09:35;;;;;;;5.55;3.17;;;6.80;85.60;;;;;;5000217;28;20206;-76
2022/01/18 09:12:04;;;;;;;9.60;3.10;;;6.80;85.50;;;;;;4994232;28;20252;-76
2022/01/18 09:14:32;;;;;;;10.07;3.40;;;6.80;85.60;;;;;;4995176;28;20688;-77
2022/01/18 09:17:00;;;;;;;5.22;2.80;;;6.90;85.60;;;;;;4996411;28;20206;-76
2022/01/18 09:19:28;;;;;;;8.95;3.22;;;6.90;85.50;;;;;;4996670;28;20230;-74
2022/01/18 09:21:59;;;;;;;8.85;3.35;;;6.90;85.50;;;;;;4998339;28;20635;-75
2022/01/18 09:24:28;;;;;;;10.25;3.15;;;6.90;85.50;;;;;;5001534;28;20478;-76
2022/01/18 09:26:56;;;;;;;8.20;2.45;;;7.00;85.40;;;;;;4997434;28;20206;-75
2022/01/18 09:29:24;;;;;;;8.88;2.50;;;7.00;85.40;;;;;;4996050;28;20678;-75
2022/01/18 09:31:52;;;;;;;5.88;2.50;;;7.00;85.40;;;;;;4996420;28;20648;-75
2022/01/18 09:34:20;;;;;;;8.48;3.00;;;7.00;85.30;;;;;;4997537;28;20191;-75
2022/01/18 09:36:48;;;;;;;6.05;2.63;;;7.00;85.20;;;;;;5001642;28;20677;-75
2022/01/18 09:39:16;;;;;;;6.10;3.10;;;7.00;85.20;;;;;;4997885;28;20223;-74
2022/01/18 09:41:51;;;;;;;8.98;2.90;;;7.00;85.20;;;;;;4994971;28;20274;-75
2022/01/18 09:44:19;;;;;;;5.07;2.55;;;7.00;85.10;;;;;;4995763;28;20731;-75
2022/01/18 09:46:50;;;;;;;5.35;2.90;;;7.00;85.10;;;;;;4997798;28;20206;-75
2022/01/18 09:49:19;;;;;;;5.90;2.70;;;7.00;85.10;;;;;;4996945;28;20260;-75
2022/01/18 09:51:47;;;;;;;9.88;2.67;;;7.00;85.20;;;;;;5000120;28;20223;-75
2022/01/18 09:54:15;;;;;;;8.82;2.80;;;7.00;85.20;;;;;;5000657;28;20199;-76
2022/01/18 09:56:43;;;;;;;11.00;3.40;;;7.00;85.20;;;;;;4997322;28;20279;-76
2022/01/18 09:59:13;;;;;;;8.77;2.50;;;7.00;85.20;;;;;;4998255;28;20653;-76
2022/01/18 10:01:41;;;;;;;5.20;2.42;;;7.10;85.20;;;;;;4994531;28;20556;-76
2022/01/18 10:04:17;;;;;;;13.68;3.38;;;7.10;85.20;;;;;;4993123;28;20233;-76
2022/01/18 10:06:46;;;;;;;7.80;3.10;;;7.10;85.10;;;;;;4997565;28;20223;-76
2022/01/18 10:09:16;;;;;;;6.03;2.53;;;7.10;85.10;;;;;;4998356;28;20233;-76
2022/01/18 10:12:05;;;;;;;7.65;2.58;;;7.10;85.10;;;;;;4997936;28;20281;-76
2022/01/18 10:14:36;;;;;;;3.95;1.90;;;7.10;85.20;;;;;;4999496;28;20709;-76
2022/01/18 10:17:06;;;;;;;5.68;2.53;;;7.10;85.10;;;;;;4998962;28;20199;-76
2022/01/18 10:19:37;;;;;;;4.97;1.88;;;7.10;85.10;;;;;;5003619;28;20254;-76
2022/01/18 10:22:11;;;;;;;6.20;1.88;;;7.10;85.10;;;;;;4997546;28;20210;-76
2022/01/18 10:24:40;;;;;;;7.00;1.70;;;7.20;85.10;;;;;;5005499;28;20210;-76
2022/01/18 10:27:09;;;;;;;5.32;1.90;;;7.20;85.00;;;;;;4995837;28;20203;-76
2022/01/18 10:29:41;;;;;;;4.63;1.70;;;7.20;85.10;;;;;;5000703;28;20621;-76
2022/01/18 10:32:13;;;;;;;5.15;1.85;;;7.20;85.10;;;;;;5005973;28;20238;-75
2022/01/18 10:37:29;;;;;;;3.75;1.50;;;7.20;84.90;;;;;;5002873;28;20290;-75
2022/01/18 10:39:58;;;;;;;5.78;1.58;;;7.20;84.90;;;;;;5001216;28;20612;-75
2022/01/18 10:42:33;;;;;;;6.63;1.90;;;7.20;84.80;;;;;;5001834;28;20208;-75
2022/01/18 10:45:06;;;;;;;7.68;1.52;;;7.30;84.90;;;;;;4997694;28;20218;-75
2022/01/18 10:47:35;;;;;;;5.32;1.73;;;7.30;85.00;;;;;;4996080;28;20286;-75
2022/01/18 10:50:11;;;;;;;4.68;2.22;;;7.30;85.00;;;;;;5006055;28;20219;-75
2022/01/18 10:52:40;;;;;;;6.50;2.53;;;7.40;84.90;;;;;;5001247;28;20353;-76
2022/01/18 10:55:14;;;;;;;9.55;2.20;;;7.40;84.90;;;;;;4996120;28;20197;-75
2022/01/18 10:57:44;;;;;;;4.82;2.00;;;7.40;84.80;;;;;;4996117;28;20466;-75
2022/01/18 11:00:16;;;;;;;5.07;1.80;;;7.50;84.70;;;;;;4997903;28;20203;-75
2022/01/18 11:02:45;;;;;;;8.85;2.10;;;7.50;84.70;;;;;;5000290;28;20188;-75
2022/01/18 11:05:17;;;;;;;3.53;1.80;;;7.50;84.80;;;;;;4992440;28;20207;-75
2022/01/18 11:07:47;;;;;;;4.63;2.10;;;7.50;84.70;;;;;;4993969;28;20229;-76
2022/01/18 11:10:18;;;;;;;5.70;1.70;;;7.50;84.60;;;;;;5000677;28;20204;-75
2022/01/18 11:12:49;;;;;;;4.45;1.45;;;7.50;84.40;;;;;;4997610;28;20207;-74
2022/01/18 11:15:21;;;;;;;11.63;7.38;;;7.50;84.30;;;;;;5000126;28;20204;-75
2022/01/18 11:17:56;;;;;;;12.00;5.63;;;7.50;84.30;;;;;;5004201;28;20235;-75
2022/01/18 11:20:25;;;;;;;5.70;2.05;;;7.50;84.40;;;;;;5000192;28;20723;-74
2022/01/18 11:22:53;;;;;;;5.63;3.08;;;7.50;84.00;;;;;;4998424;28;20674;-76
2022/01/18 11:25:23;;;;;;;4.93;1.50;;;7.50;84.30;;;;;;5000430;28;20646;-75
2022/01/18 11:27:53;;;;;;;4.90;1.42;;;7.50;84.20;;;;;;4994958;28;20225;-75
2022/01/18 11:30:24;;;;;;;4.18;1.80;;;7.50;83.60;;;;;;4999129;28;20201;-75
2022/01/18 11:32:54;;;;;;;3.75;1.20;;;7.50;83.60;;;;;;5001141;28;20234;-75
2022/01/18 11:35:27;;;;;;;3.15;1.35;;;7.50;83.80;;;;;;5000115;28;20211;-75
2022/01/18 11:38:06;;;;;;;3.22;1.13;;;7.50;83.20;;;;;;5005251;28;20306;-75
2022/01/18 11:40:46;;;;;;;6.43;1.20;;;7.50;83.80;;;;;;4998235;28;20208;-75
2022/01/18 11:43:14;;;;;;;3.85;1.50;;;7.50;83.80;;;;;;5000187;28;20580;-75
2022/01/18 11:45:44;;;;;;;11.18;4.28;;;7.50;83.80;;;;;;5001241;28;20258;-75
2022/01/18 11:48:19;;;;;;;7.72;3.10;;;7.50;83.30;;;;;;5002516;28;20223;-75
2022/01/18 11:50:50;;;;;;;4.57;1.65;;;7.50;83.40;;;;;;5005328;28;20222;-76
2022/01/18 11:53:39;;;;;;;5.57;1.55;;;7.50;83.30;;;;;;5002586;28;20222;-75
2022/01/18 11:56:11;;;;;;;6.80;1.42;;;7.50;83.40;;;;;;5001698;28;20259;-75
2022/01/18 11:58:39;;;;;;;8.40;2.30;;;7.50;83.40;;;;;;4996108;28;20237;-75
2022/01/18 12:01:10;;;;;;;4.35;1.92;;;7.50;83.10;;;;;;5003452;28;20204;-75
2022/01/18 12:03:44;;;;;;;2.70;1.17;;;7.60;83.20;;;;;;5000467;28;20677;-75
2022/01/18 12:06:12;;;;;;;3.55;1.15;;;7.60;83.20;;;;;;5000761;28;21135;-76
2022/01/18 12:08:42;;;;;;;2.30;1.10;;;7.60;83.20;;;;;;4999018;28;20771;-75
2022/01/18 12:11:13;;;;;;;2.80;1.10;;;7.60;83.10;;;;;;4997479;28;20759;-75
2022/01/18 12:13:45;;;;;;;2.28;0.90;;;7.60;82.90;;;;;;4999755;28;20216;-75
2022/01/18 12:16:28;;;;;;;3.38;1.08;;;7.60;82.80;;;;;;4999167;28;20201;-75
2022/01/18 12:19:09;;;;;;;3.58;1.23;;;7.60;82.20;;;;;;5001167;28;20219;-75
2022/01/18 12:21:44;;;;;;;5.82;0.98;;;7.60;82.30;;;;;;4999611;28;20218;-74
2022/01/18 12:24:19;;;;;;;2.40;1.00;;;7.50;82.60;;;;;;4999446;28;20210;-76
2022/01/18 12:26:49;;;;;;;2.75;1.08;;;7.50;82.60;;;;;;4998618;28;20855;-76
2022/01/18 12:29:34;;;;;;;2.55;0.85;;;7.50;82.60;;;;;;4997121;28;20597;-75
2022/01/18 12:35:02;;;;;;;7.88;2.78;;;7.50;82.00;;;;;;5003356;28;20203;-75
2022/01/18 12:37:44;;;;;;;3.53;1.55;;;7.50;82.00;;;;;;4997250;28;20248;-75
2022/01/18 12:40:24;;;;;;;2.95;1.20;;;7.60;82.30;;;;;;4992024;28;20208;-75
2022/01/18 12:46:06;;;;;;;2.33;0.90;;;7.60;82.00;;;;;;4971407;28;20291;-75
2022/01/18 12:48:37;;;;;;;3.38;1.30;;;7.60;82.00;;;;;;4998317;28;20224;-75
2022/01/18 12:51:08;;;;;;;2.80;1.60;;;7.60;81.70;;;;;;5000559;28;20200;-76
2022/01/18 12:53:39;;;;;;;3.10;1.40;;;7.60;81.80;;;;;;5000159;28;20227;-75
2022/01/18 12:56:09;;;;;;;2.40;0.80;;;7.60;81.70;;;;;;4997559;28;20213;-75
2022/01/18 12:58:38;;;;;;;2.70;1.00;;;7.60;81.70;;;;;;4997655;28;20303;-75
2022/01/18 13:01:20;;;;;;;4.60;4.30;;;7.60;81.60;;;;;;4521816;28;10001432;-76
2022/01/18 13:03:53;;;;;;;2.20;0.90;;;7.60;81.40;;;;;;5017918;28;20195;-75
2022/01/18 13:06:24;;;;;;;7.60;3.15;;;7.60;81.40;;;;;;5022903;28;20211;-75
2022/01/18 13:08:53;;;;;;;3.85;1.40;;;7.60;81.30;;;;;;5018005;28;20238;-75
2022/01/18 13:11:23;;;;;;;12.45;5.70;;;7.60;81.20;;;;;;5018961;28;20614;-75
2022/01/18 13:13:57;;;;;;;11.10;4.50;;;7.60;80.90;;;;;;5019935;28;20218;-75
2022/01/18 13:27:34;;;;;;;12.32;5.60;;;7.60;81.00;;;;;;5018989;28;20304;-77
2022/01/18 13:30:08;;;;;;;9.35;4.60;;;7.60;80.70;;;;;;5017360;28;20200;-77
2022/01/18 13:32:41;;;;;;;10.23;5.03;;;7.60;80.70;;;;;;5016586;28;20747;-77
2022/01/18 13:35:11;;;;;;;26.70;14.57;;;7.50;80.50;;;;;;5014671;28;20212;-77
2022/01/18 13:37:39;;;;;;;13.35;6.70;;;7.50;80.70;;;;;;5013787;28;20288;-77
2022/01/18 13:40:09;;;;;;;16.20;6.43;;;7.50;80.50;;;;;;5017751;28;20257;-77
2022/01/18 13:42:39;;;;;;;12.20;5.67;;;7.50;80.40;;;;;;5016349;28;20208;-77
2022/01/18 13:45:11;;;;;;;10.10;4.68;;;7.50;80.50;;;;;;5011626;28;20450;-77
2022/01/18 13:47:41;;;;;;;13.75;6.22;;;7.50;80.40;;;;;;5015186;28;20258;-77
2022/01/18 13:50:30;;;;;;;15.27;7.10;;;7.50;80.10;;;;;;4140584;28;10000913;-77
2022/01/18 13:52:59;;;;;;;20.20;9.00;;;7.50;80.10;;;;;;4142442;28;10000977;-77
2022/01/18 13:55:28;;;;;;;16.33;6.20;;;7.50;80.30;;;;;;5016425;28;20505;-77
2022/01/18 13:57:56;;;;;;;10.05;4.13;;;7.50;79.80;;;;;;4141029;28;10000976;-78
2022/01/18 14:00:24;;;;;;;7.00;2.05;;;7.50;80.20;;;;;;5014698;28;20214;-77
2022/01/18 14:02:53;;;;;;;5.97;3.25;;;7.60;80.20;;;;;;5015161;28;20279;-78
2022/01/18 14:05:23;;;;;;;4.57;2.47;;;7.60;80.30;;;;;;4141549;28;10000073;-77
2022/01/18 14:08:03;;;;;;;9.98;4.22;;;7.60;80.20;;;;;;5015178;28;20229;-77
2022/01/18 14:10:31;;;;;;;4.22;1.92;;;7.60;80.00;;;;;;5015186;28;20211;-78